Time;durP1;ratioP1;P1;durP2;ratioP2;P2;SDS_P1;SDS_P2;PMS_P1;PMS_P2;Temp;Humidity;BMP_temperature;BMP_pressure;BME280_temperature;BME280_humidity;BME280_pressure;Samples;Min_cycle;Max_cycle;Signal;HPM_P1;HPM_P2
2021/10/22 00:00:52;;;;;;;0.32;0.20;;;20.70;39.20;21.00;93770.00;;;;10432017;28;47372;-66
2021/10/22 00:05:53;;;;;;;0.63;0.03;;;20.70;39.30;21.00;93771.00;;;;10432099;28;45473;-64
2021/10/22 00:10:54;;;;;;;0.03;0.00;;;20.70;39.30;21.00;93764.00;;;;10435438;28;46307;-63
2021/10/22 00:15:55;;;;;;;0.32;0.10;;;20.70;39.30;21.00;93789.00;;;;10438822;28;46711;-65
2021/10/22 00:20:55;;;;;;;0.30;0.10;;;20.70;39.30;20.90;93783.00;;;;10439014;28;47112;-63
2021/10/22 00:25:57;;;;;;;0.25;0.10;;;20.70;39.30;20.90;93772.00;;;;10438389;28;47055;-64
2021/10/22 00:30:57;;;;;;;0.30;0.10;;;20.70;39.40;20.90;93784.00;;;;10436796;28;45684;-63
2021/10/22 00:35:58;;;;;;;0.15;0.03;;;20.70;39.40;20.90;93780.00;;;;10396973;28;48341;-67
2021/10/22 00:41:00;;;;;;;0.10;0.08;;;20.70;39.50;20.90;93768.00;;;;10396518;28;47136;-64
2021/10/22 00:46:01;;;;;;;0.57;0.20;;;20.60;39.40;20.90;93783.00;;;;10396653;28;45406;-63
2021/10/22 00:51:06;;;;;;;0.30;0.20;;;20.60;39.40;20.90;93779.00;;;;10396911;28;45999;-63
2021/10/22 00:56:09;;;;;;;0.85;0.13;;;20.60;39.50;20.90;93767.00;;;;10396264;28;45411;-64
2021/10/22 01:01:10;;;;;;;0.03;0.03;;;20.60;39.50;20.80;93778.00;;;;10392483;28;47934;-64
2021/10/22 01:06:11;;;;;;;0.40;0.10;;;20.60;39.50;20.90;93788.00;;;;10393497;28;45485;-64
2021/10/22 01:11:14;;;;;;;0.60;0.20;;;20.60;39.50;20.80;93786.00;;;;10395976;28;46410;-63
2021/10/22 01:16:14;;;;;;;0.38;0.17;;;20.60;39.60;20.80;93778.00;;;;10395031;28;45304;-63
2021/10/22 01:21:15;;;;;;;0.20;0.10;;;20.50;39.50;20.80;93779.00;;;;10395366;28;45383;-63
2021/10/22 01:26:18;;;;;;;0.40;0.00;;;20.60;39.60;20.80;93786.00;;;;10395130;28;45263;-66
2021/10/22 01:31:19;;;;;;;0.20;0.03;;;20.50;39.60;20.80;93790.00;;;;10411608;28;47971;-64
2021/10/22 01:36:20;;;;;;;0.38;0.10;;;20.50;39.60;20.80;93782.00;;;;10394736;28;46162;-64
2021/10/22 01:41:20;;;;;;;0.35;0.20;;;20.50;39.60;20.80;93776.00;;;;10394424;28;45138;-65
2021/10/22 01:46:21;;;;;;;0.22;0.20;;;20.50;39.60;20.70;93785.00;;;;10393885;28;47569;-63
2021/10/22 01:51:22;;;;;;;0.35;0.10;;;20.50;39.70;20.70;93785.00;;;;10393978;28;45555;-64
2021/10/22 01:56:22;;;;;;;0.57;0.08;;;20.50;39.70;20.70;93782.00;;;;10393472;28;48327;-63
2021/10/22 02:01:23;;;;;;;0.45;0.10;;;20.50;39.80;20.70;93770.00;;;;10392967;28;47218;-65
2021/10/22 02:06:24;;;;;;;0.10;0.00;;;20.50;39.70;20.70;93783.00;;;;10392964;28;45477;-64
2021/10/22 02:11:24;;;;;;;0.10;0.00;;;20.40;39.70;20.70;93773.00;;;;10393802;28;45505;-64
2021/10/22 02:16:25;;;;;;;0.17;0.10;;;20.50;39.70;20.70;93781.00;;;;10392815;28;46342;-63
2021/10/22 02:21:27;;;;;;;0.17;0.10;;;20.40;39.70;20.70;93768.00;;;;10393515;28;46308;-63
2021/10/22 02:26:28;;;;;;;0.10;0.00;;;20.40;39.70;20.70;93776.00;;;;10392804;28;45532;-63
2021/10/22 02:31:28;;;;;;;0.45;0.10;;;20.40;39.80;20.70;93787.00;;;;10397581;28;47218;-64
2021/10/22 02:36:29;;;;;;;0.22;0.10;;;20.40;39.80;20.70;93771.00;;;;10416993;28;47397;-64
2021/10/22 02:41:30;;;;;;;0.55;0.10;;;20.40;39.80;20.70;93782.00;;;;10433682;28;47418;-64
2021/10/22 02:46:31;;;;;;;0.52;0.25;;;20.40;39.80;20.60;93776.00;;;;10416543;28;48344;-63
2021/10/22 02:51:32;;;;;;;0.10;0.00;;;20.40;39.90;20.60;93772.00;;;;10395581;28;45342;-63
2021/10/22 02:56:33;;;;;;;0.35;0.08;;;20.40;39.90;20.60;93762.00;;;;10391171;28;46936;-64
2021/10/22 03:01:33;;;;;;;0.10;0.00;;;20.40;39.90;20.60;93779.00;;;;10392183;28;45376;-64
2021/10/22 03:06:34;;;;;;;0.20;0.10;;;20.40;39.90;20.60;93800.00;;;;10392221;28;46788;-64
2021/10/22 03:11:35;;;;;;;0.17;0.00;;;20.40;39.90;20.70;93793.00;;;;10392214;28;46169;-64
2021/10/22 03:16:35;;;;;;;0.10;0.10;;;20.40;40.00;20.60;93787.00;;;;10408028;28;47179;-63
2021/10/22 03:21:37;;;;;;;0.25;0.10;;;20.40;40.00;20.60;93801.00;;;;10392395;28;46582;-63
2021/10/22 03:26:39;;;;;;;0.08;0.00;;;20.30;40.00;20.60;93809.00;;;;10392767;28;45483;-63
2021/10/22 03:31:40;;;;;;;0.00;0.00;;;20.30;40.00;20.60;93801.00;;;;10391658;28;48090;-65
2021/10/22 03:36:41;;;;;;;0.08;0.08;;;20.40;40.10;20.60;93801.00;;;;10391370;28;47288;-64
2021/10/22 03:41:42;;;;;;;0.20;0.10;;;20.30;40.00;20.60;93811.00;;;;10391031;28;47212;-64
2021/10/22 03:46:42;;;;;;;0.00;0.00;;;20.30;40.00;20.60;93807.00;;;;10397616;28;45168;-64
2021/10/22 03:51:43;;;;;;;0.00;0.00;;;20.40;40.10;20.50;93798.00;;;;10398910;28;45596;-63
2021/10/22 03:56:44;;;;;;;0.10;0.00;;;20.30;40.10;20.50;93812.00;;;;10399583;28;45589;-63
2021/10/22 04:01:45;;;;;;;0.05;0.00;;;20.30;40.10;20.60;93826.00;;;;10398581;28;45588;-63
2021/10/22 04:06:46;;;;;;;0.10;0.03;;;20.30;40.10;20.50;93827.00;;;;10397893;28;45256;-64
2021/10/22 04:11:47;;;;;;;0.13;0.10;;;20.20;40.10;20.70;93816.00;;;;10397883;28;45514;-63
2021/10/22 04:16:47;;;;;;;0.20;0.00;;;20.30;40.20;20.70;93815.00;;;;10397236;28;47014;-63
2021/10/22 04:21:49;;;;;;;0.13;0.00;;;20.40;40.20;20.80;93828.00;;;;10398163;28;45420;-64
2021/10/22 04:26:50;;;;;;;0.00;0.00;;;20.40;40.20;20.90;93820.00;;;;10396909;28;46150;-64
2021/10/22 04:31:51;;;;;;;0.15;0.00;;;20.50;40.20;20.90;93807.00;;;;10396564;28;48154;-63
2021/10/22 04:36:51;;;;;;;0.20;0.00;;;20.50;40.10;20.90;93833.00;;;;10396357;28;47051;-65
2021/10/22 04:41:52;;;;;;;0.10;0.00;;;20.60;40.10;21.00;93824.00;;;;10397610;28;45169;-64
2021/10/22 04:46:53;;;;;;;0.00;0.00;;;20.60;40.10;21.00;93840.00;;;;10396948;28;47274;-63
2021/10/22 04:51:54;;;;;;;0.00;0.00;;;20.70;40.10;21.10;93845.00;;;;10395961;28;47245;-64
2021/10/22 04:56:55;;;;;;;0.30;0.10;;;20.70;40.00;21.10;93843.00;;;;10395112;28;46550;-64
2021/10/22 05:01:55;;;;;;;0.20;0.08;;;20.80;40.00;21.10;93843.00;;;;10395959;28;48202;-63
2021/10/22 05:06:56;;;;;;;0.00;0.00;;;20.80;40.00;21.20;93848.00;;;;10395451;28;45210;-63
2021/10/22 05:11:57;;;;;;;0.10;0.00;;;20.80;40.00;21.20;93860.00;;;;10395254;28;47323;-64
2021/10/22 05:16:57;;;;;;;0.00;0.00;;;20.80;40.10;21.20;93861.00;;;;10394597;28;47286;-64
2021/10/22 05:21:58;;;;;;;0.20;0.00;;;20.90;40.00;21.20;93856.00;;;;10394974;28;45232;-63
2021/10/22 05:26:59;;;;;;;0.00;0.00;;;20.90;39.90;21.30;93876.00;;;;10411325;28;46574;-64
2021/10/22 05:31:59;;;;;;;0.00;0.00;;;20.90;39.90;21.30;93865.00;;;;10394573;28;48110;-64
2021/10/22 05:37:00;;;;;;;0.00;0.00;;;20.90;39.90;21.30;93863.00;;;;10393565;28;47525;-64
2021/10/22 05:42:01;;;;;;;0.00;0.00;;;20.90;39.80;21.30;93882.00;;;;10394240;28;45270;-64
2021/10/22 05:47:02;;;;;;;0.00;0.00;;;21.00;39.80;21.40;93883.00;;;;10396109;28;45642;-64
2021/10/22 05:52:03;;;;;;;0.00;0.00;;;21.00;39.80;21.40;93884.00;;;;10394598;28;46966;-63
2021/10/22 05:57:04;;;;;;;0.20;0.00;;;21.00;39.80;21.40;93906.00;;;;10394313;28;46987;-63
2021/10/22 06:02:05;;;;;;;0.00;0.00;;;21.10;39.80;21.40;93895.00;;;;10394030;28;48323;-64
2021/10/22 06:07:06;;;;;;;0.00;0.00;;;21.10;39.80;21.40;93893.00;;;;10393219;28;47074;-63
2021/10/22 06:12:07;;;;;;;0.10;0.00;;;21.10;39.70;21.50;93904.00;;;;10410437;28;47354;-66
2021/10/22 06:17:07;;;;;;;0.00;0.00;;;21.10;39.70;21.50;93911.00;;;;10395178;28;46489;-63
2021/10/22 06:22:15;;;;;;;0.00;0.00;;;21.10;39.70;21.50;93914.00;;;;10393529;28;47446;-64
2021/10/22 06:27:17;;;;;;;0.17;0.00;;;21.10;39.60;21.50;93920.00;;;;10394472;28;45449;-64
2021/10/22 06:32:17;;;;;;;0.00;0.00;;;21.10;39.60;21.50;93940.00;;;;10393042;28;47892;-63
2021/10/22 06:37:18;;;;;;;0.03;0.00;;;21.20;39.70;21.50;93950.00;;;;10409036;28;47395;-64
2021/10/22 06:42:19;;;;;;;0.00;0.00;;;21.20;39.60;21.50;93971.00;;;;10392739;28;48192;-64
2021/10/22 06:47:19;;;;;;;0.00;0.00;;;21.20;39.60;21.50;93961.00;;;;10392641;28;45661;-64
2021/10/22 06:52:20;;;;;;;1.77;0.20;;;21.20;39.50;21.50;93964.00;;;;10392163;28;47951;-69
2021/10/22 06:57:21;;;;;;;1.48;0.08;;;21.20;39.10;21.30;93957.00;;;;10388909;28;45433;-64
2021/10/22 07:02:21;;;;;;;3.72;0.30;;;21.10;37.70;21.30;93986.00;;;;10391788;28;45296;-64
2021/10/22 07:07:24;;;;;;;1.48;0.20;;;21.10;38.00;21.30;93972.00;;;;10390957;28;46283;-64
2021/10/22 07:12:25;;;;;;;1.25;0.20;;;21.10;37.90;21.30;93966.00;;;;10392190;28;45196;-64
2021/10/22 07:17:26;;;;;;;7.45;0.50;;;21.10;38.10;21.30;93978.00;;;;10391365;28;46158;-64
2021/10/22 07:22:32;;;;;;;3.50;0.20;;;21.00;38.10;21.30;93997.00;;;;10390985;28;45281;-64
2021/10/22 07:27:33;;;;;;;2.28;0.20;;;21.00;37.80;21.30;94003.00;;;;10387286;28;45477;-63
2021/10/22 07:32:34;;;;;;;1.23;0.20;;;21.10;37.90;21.30;94009.00;;;;10390201;28;48314;-64
2021/10/22 07:37:35;;;;;;;2.08;0.13;;;21.10;37.60;21.40;94021.00;;;;10390347;28;45495;-64
2021/10/22 07:42:37;;;;;;;2.38;0.20;;;21.10;37.90;21.40;94039.00;;;;10390602;28;46961;-64
2021/10/22 07:47:37;;;;;;;0.30;0.10;;;21.10;37.70;21.40;94058.00;;;;10389770;28;45504;-62
2021/10/22 07:52:38;;;;;;;0.63;0.17;;;21.10;37.50;21.40;94051.00;;;;10390451;28;48153;-65
2021/10/22 07:57:39;;;;;;;1.95;0.50;;;21.10;37.60;21.40;94077.00;;;;10390073;28;48182;-62
2021/10/22 08:02:41;;;;;;;2.92;0.20;;;21.10;37.50;21.30;94087.00;;;;10372531;28;48518;-62
2021/10/22 08:07:42;;;;;;;1.25;0.20;;;21.10;38.10;21.30;94081.00;;;;10389463;28;45376;-62
2021/10/22 08:12:42;;;;;;;1.30;0.40;;;21.10;38.10;21.40;94089.00;;;;10390192;28;45193;-63
2021/10/22 08:17:43;;;;;;;3.83;0.30;;;21.10;37.90;21.50;94092.00;;;;10390426;28;45655;-62
2021/10/22 08:22:44;;;;;;;2.22;0.40;;;21.20;38.00;21.30;94102.00;;;;10390389;28;46698;-64
2021/10/22 08:27:48;;;;;;;3.03;0.22;;;21.10;38.00;21.40;94098.00;;;;10390402;28;45196;-63
2021/10/22 08:32:57;;;;;;;0.90;0.20;;;21.10;38.50;21.40;94114.00;;;;10395430;28;45561;-61
2021/10/22 08:37:58;;;;;;;5.07;0.30;;;21.20;38.80;21.50;94102.00;;;;10379855;28;47898;-62
2021/10/22 08:42:59;;;;;;;1.75;0.35;;;21.20;39.00;21.50;94102.00;;;;10396238;28;45332;-66
2021/10/22 08:48:04;;;;;;;2.50;0.30;;;21.30;38.70;21.50;94118.00;;;;10396762;28;45225;-61
2021/10/22 08:53:05;;;;;;;2.45;0.22;;;21.20;38.90;21.50;94119.00;;;;10396407;28;45446;-65
2021/10/22 08:58:05;;;;;;;1.23;0.20;;;21.30;39.30;21.40;94127.00;;;;10395052;28;45142;-61
2021/10/22 09:03:12;;;;;;;2.65;0.25;;;21.20;39.80;21.50;94114.00;;;;10396886;28;45922;-63
2021/10/22 09:08:13;;;;;;;1.67;0.20;;;21.20;40.70;21.40;94106.00;;;;10395161;28;45677;-64
2021/10/22 09:13:16;;;;;;;2.63;0.38;;;21.30;40.70;21.50;94134.00;;;;10397825;28;45054;-69
2021/10/22 09:18:24;;;;;;;1.20;0.20;;;21.30;41.20;21.50;94131.00;;;;10396686;28;47385;-68
2021/10/22 09:23:29;;;;;;;0.98;0.20;;;21.30;41.10;21.50;94144.00;;;;10397224;28;45558;-67
2021/10/22 09:28:29;;;;;;;2.72;0.10;;;21.30;41.20;21.60;94140.00;;;;10395677;28;47036;-63
2021/10/22 09:33:30;;;;;;;1.70;0.20;;;21.30;41.50;21.60;94157.00;;;;10395898;28;45121;-62
2021/10/22 09:38:31;;;;;;;2.28;0.30;;;21.30;41.60;21.50;94160.00;;;;10378490;28;47508;-64
2021/10/22 09:43:40;;;;;;;2.15;0.40;;;21.40;41.20;21.50;94157.00;;;;10377237;28;46995;-68
2021/10/22 09:48:49;;;;;;;1.88;0.20;;;21.30;41.70;21.50;94153.00;;;;10378164;28;47403;-70
2021/10/22 09:53:51;;;;;;;1.67;0.30;;;21.30;41.50;21.50;94151.00;;;;10377478;28;48398;-69
2021/10/22 09:59:02;;;;;;;3.35;0.35;;;21.30;41.80;21.50;94170.00;;;;10376548;28;47262;-68
2021/10/22 10:04:16;;;;;;;2.53;0.38;;;21.30;42.90;21.50;94176.00;;;;10394782;28;45252;-61
2021/10/22 10:09:18;;;;;;;2.50;0.60;;;21.30;43.00;21.50;94163.00;;;;10394036;28;46332;-62
2021/10/22 10:14:21;;;;;;;2.30;0.50;;;21.30;42.50;21.50;94198.00;;;;10393388;28;47485;-62
2021/10/22 10:19:34;;;;;;;2.13;0.40;;;21.30;42.30;21.50;94208.00;;;;10393025;28;46130;-62
2021/10/22 10:24:43;;;;;;;2.42;0.22;;;21.20;42.30;21.50;94198.00;;;;10394466;28;46000;-61
2021/10/22 10:29:50;;;;;;;2.60;0.35;;;21.20;42.10;21.50;94214.00;;;;10392893;28;45232;-60
2021/10/22 10:34:59;;;;;;;1.48;0.30;;;21.30;42.20;21.50;94221.00;;;;10391987;28;46868;-60
2021/10/22 10:40:12;;;;;;;1.10;0.20;;;21.30;42.70;21.50;94206.00;;;;10392768;28;46552;-59
2021/10/22 10:45:25;;;;;;;2.40;0.47;;;21.30;42.90;21.50;94213.00;;;;10393289;28;46411;-59
2021/10/22 10:50:56;;;;;;;1.40;0.40;;;21.30;43.20;21.60;94216.00;;;;10384505;28;45159;-69
2021/10/22 10:55:58;;;;;;;2.05;0.40;;;21.30;44.70;21.60;94194.00;;;;10391094;28;47373;-64
2021/10/22 11:01:07;;;;;;;3.38;0.55;;;21.30;43.90;21.70;94221.00;;;;10391922;28;45513;-65
2021/10/22 11:06:09;;;;;;;1.33;0.45;;;21.40;44.70;21.80;94198.00;;;;10373567;28;47346;-64
2021/10/22 11:11:15;;;;;;;2.15;0.40;;;21.40;44.50;21.70;94200.00;;;;10391453;28;48240;-64
2021/10/22 11:16:22;;;;;;;2.70;0.50;;;21.50;44.30;21.80;94223.00;;;;10392230;28;47074;-64
2021/10/22 11:21:28;;;;;;;3.17;0.70;;;21.50;44.60;21.80;94223.00;;;;10392874;28;46598;-68
2021/10/22 11:26:29;;;;;;;2.10;0.50;;;21.60;44.80;21.80;94209.00;;;;10390757;28;46969;-61
2021/10/22 11:31:57;;;;;;;2.25;0.50;;;21.60;45.00;21.70;94211.00;;;;10390911;28;46071;-67
2021/10/22 11:37:12;;;;;;;1.05;0.50;;;21.50;44.30;21.70;94212.00;;;;10390028;28;45207;-70
2021/10/22 11:42:29;;;;;;;4.28;0.38;;;21.50;43.80;21.70;94205.00;;;;10390748;28;47389;-63
2021/10/22 11:47:35;;;;;;;2.60;0.57;;;21.50;43.80;21.80;94196.00;;;;10389629;28;45540;-67
2021/10/22 11:52:36;;;;;;;1.85;0.40;;;21.50;43.70;21.80;94216.00;;;;10389550;28;45357;-66
2021/10/22 11:57:37;;;;;;;1.77;0.35;;;21.50;43.50;21.80;94190.00;;;;10390452;28;48276;-66
2021/10/22 12:02:38;;;;;;;0.80;0.30;;;21.60;43.40;21.80;94191.00;;;;10389694;28;47713;-74
2021/10/22 12:07:47;;;;;;;1.58;0.38;;;21.60;43.50;21.80;94199.00;;;;10396561;28;47042;-62
2021/10/22 12:12:53;;;;;;;1.08;0.32;;;21.60;43.50;21.80;94194.00;;;;10396102;28;46990;-63
2021/10/22 12:17:59;;;;;;;1.65;0.63;;;21.60;43.10;21.80;94188.00;;;;10396951;28;47297;-62
2021/10/22 12:23:01;;;;;;;;;;;21.60;42.70;21.80;94196.00;;;;10396995;28;46563;-74
2021/10/22 12:28:14;;;;;;;3.67;0.35;;;21.50;40.90;21.90;94183.00;;;;10397897;28;45474;-62
2021/10/22 12:33:15;;;;;;;2.92;0.40;;;21.60;41.20;21.80;94184.00;;;;10396172;28;47496;-62
2021/10/22 12:38:19;;;;;;;1.13;0.20;;;21.60;41.50;21.80;94198.00;;;;10397240;28;46082;-62
2021/10/22 12:43:31;;;;;;;0.70;0.30;;;21.60;41.70;21.70;94200.00;;;;10396618;28;46051;-62
2021/10/22 12:48:38;;;;;;;2.70;0.40;;;21.50;41.70;21.70;94207.00;;;;10408539;28;45337;-62
2021/10/22 12:53:42;;;;;;;0.50;0.20;;;21.50;41.90;21.70;94201.00;;;;10436455;28;47175;-62
2021/10/22 12:59:06;;;;;;;2.38;0.50;;;21.40;41.90;21.50;94211.00;;;;10435517;28;46185;-62
2021/10/22 13:04:23;;;;;;;0.52;0.10;;;21.40;41.50;21.60;94218.00;;;;10435844;28;47088;-62
2021/10/22 13:09:44;;;;;;;0.25;0.10;;;21.40;41.30;21.60;94206.00;;;;10436197;28;47432;-62
2021/10/22 13:15:05;;;;;;;1.45;0.20;;;21.40;41.40;21.60;94215.00;;;;10438361;28;47368;-62
2021/10/22 13:25:22;;;;;;;1.87;0.23;;;21.30;41.40;21.60;94207.00;;;;10435751;28;45505;-62
2021/10/22 13:30:29;;;;;;;2.08;0.20;;;21.30;41.40;21.60;94227.00;;;;10434432;28;46058;-62
2021/10/22 13:35:30;;;;;;;0.50;0.20;;;21.30;41.50;21.60;94220.00;;;;10395742;28;45583;-62
2021/10/22 13:40:31;;;;;;;0.93;0.35;;;21.30;41.60;21.60;94216.00;;;;10393804;28;47279;-62
2021/10/22 13:45:33;;;;;;;0.60;0.20;;;21.30;42.20;21.50;94228.00;;;;10425930;22;47909;-60
2021/10/22 13:50:33;;;;;;;0.35;0.10;;;21.30;41.60;21.60;94224.00;;;;10344704;28;47083;-60
2021/10/22 13:55:34;;;;;;;0.10;0.05;;;21.30;41.50;21.50;94235.00;;;;10379839;28;45388;-60
2021/10/22 14:00:36;;;;;;;1.10;0.30;;;21.30;41.40;21.50;94241.00;;;;10409573;28;45403;-60
2021/10/22 14:05:37;;;;;;;0.20;0.20;;;21.30;41.40;21.50;94247.00;;;;10336759;28;47191;-60
2021/10/22 14:10:40;;;;;;;0.05;0.05;;;21.30;41.30;21.50;94246.00;;;;10352200;28;45256;-60
2021/10/22 14:31:40;;;;;;;0.70;0.20;;;21.30;41.00;21.50;94274.00;;;;10391132;28;45693;-60
2021/10/22 14:36:42;;;;;;;0.40;0.10;;;21.30;40.80;21.50;94272.00;;;;10375530;28;48227;-61
2021/10/22 14:41:43;;;;;;;0.63;0.20;;;21.20;40.80;21.50;94271.00;;;;10408588;28;45427;-60
2021/10/22 14:46:49;;;;;;;0.52;0.20;;;21.20;40.60;21.50;94264.00;;;;10390900;28;47185;-60
2021/10/22 14:56:51;;;;;;;0.65;0.17;;;21.30;40.50;21.50;94266.00;;;;10392486;28;45140;-60
2021/10/22 15:01:51;;;;;;;0.20;0.10;;;21.20;40.30;21.50;94265.00;;;;10391784;28;45664;-60
2021/10/22 15:06:52;;;;;;;0.32;0.20;;;21.20;40.30;21.50;94274.00;;;;10393024;28;46372;-61
2021/10/22 15:11:52;;;;;;;0.32;0.10;;;21.20;40.00;21.50;94286.00;;;;10374840;28;46640;-60
2021/10/22 15:16:53;;;;;;;0.20;0.10;;;21.20;39.90;21.40;94289.00;;;;10390254;28;45219;-61
2021/10/22 15:21:54;;;;;;;0.70;0.20;;;21.20;39.80;21.50;94284.00;;;;10326484;27;46879;-61
2021/10/22 15:26:55;;;;;;;1.08;0.13;;;21.20;39.80;21.50;94284.00;;;;10465853;28;45121;-66
2021/10/22 15:31:56;;;;;;;0.13;0.00;;;21.20;39.70;21.50;94287.00;;;;10490622;28;45478;-64
2021/10/22 15:37:00;;;;;;;0.22;0.13;;;21.20;39.40;21.50;94298.00;;;;10491893;28;46924;-62
2021/10/22 15:42:01;;;;;;;0.90;0.20;;;21.30;39.50;21.50;94291.00;;;;10497197;27;47106;-60
2021/10/22 15:47:03;;;;;;;1.50;0.20;;;21.30;39.70;21.30;94304.00;;;;10482730;28;46342;-61
2021/10/22 15:52:16;;;;;;;2.40;0.30;;;21.20;39.00;21.30;94289.00;;;;10498282;28;48010;-62
2021/10/22 15:57:23;;;;;;;1.10;0.30;;;21.10;38.20;21.30;94311.00;;;;10480545;28;48057;-60
2021/10/22 16:02:24;;;;;;;4.80;0.70;;;21.10;34.80;21.30;94318.00;;;;10497999;28;47038;-60
2021/10/22 16:18:01;;;;;;;2.72;0.40;;;21.10;37.30;21.20;94325.00;;;;10496241;28;45318;-61
2021/10/22 16:23:01;;;;;;;1.65;0.30;;;21.10;37.30;21.20;94332.00;;;;10496830;28;45175;-60
2021/10/22 16:28:02;;;;;;;2.75;0.93;;;21.10;37.00;21.10;94336.00;;;;10495921;28;45441;-60
2021/10/22 16:33:16;;;;;;;3.65;1.20;;;21.10;35.70;21.20;94347.00;;;;10496182;28;45965;-61
2021/10/22 16:38:18;;;;;;;3.05;1.02;;;21.10;35.20;21.20;94352.00;;;;10493997;28;45499;-61
2021/10/22 16:43:19;;;;;;;2.90;0.90;;;21.00;34.30;21.20;94367.00;;;;10496514;28;46709;-61
2021/10/22 16:48:24;;;;;;;1.95;0.73;;;21.00;34.30;21.20;94355.00;;;;10480261;28;45430;-60
2021/10/22 16:53:25;;;;;;;4.00;0.90;;;21.00;34.20;21.20;94363.00;;;;10494408;27;45207;-60
2021/10/22 16:58:26;;;;;;;4.30;1.52;;;21.00;34.20;21.20;94382.00;;;;10480395;28;45544;-61
2021/10/22 17:03:26;;;;;;;3.20;1.30;;;21.00;33.80;21.20;94378.00;;;;10495094;28;47277;-60
2021/10/22 17:08:27;;;;;;;2.38;1.20;;;21.00;34.60;21.20;94374.00;;;;10478670;28;48630;-60
2021/10/22 17:13:28;;;;;;;3.33;1.10;;;21.00;34.40;21.30;94380.00;;;;10494826;28;47446;-60
2021/10/22 17:18:29;;;;;;;2.97;1.45;;;21.00;34.40;21.30;94375.00;;;;10495716;28;45291;-60
2021/10/22 17:23:30;;;;;;;3.88;1.30;;;21.00;34.40;21.30;94377.00;;;;10495378;28;46399;-60
2021/10/22 17:28:31;;;;;;;3.65;1.40;;;21.00;34.50;21.30;94399.00;;;;10479620;28;45464;-60
2021/10/22 17:33:31;;;;;;;4.18;1.20;;;21.10;34.90;21.30;94393.00;;;;10477750;28;46990;-61
2021/10/22 17:38:34;;;;;;;3.58;1.27;;;21.10;34.80;21.50;94424.00;;;;10494461;28;47539;-60
2021/10/22 17:43:35;;;;;;;3.05;1.40;;;21.10;34.90;21.50;94433.00;;;;10493734;28;46362;-60
2021/10/22 17:48:35;;;;;;;4.18;1.40;;;21.20;35.00;21.60;94450.00;;;;10477319;28;47814;-59
2021/10/22 17:53:37;;;;;;;3.97;1.20;;;21.20;35.10;21.60;94464.00;;;;10478147;28;45542;-60
2021/10/22 17:58:38;;;;;;;4.72;1.58;;;21.30;35.20;21.60;94462.00;;;;10493722;28;45738;-61
2021/10/22 18:03:39;;;;;;;2.35;1.38;;;21.30;35.30;21.70;94457.00;;;;10462787;27;46889;-61
2021/10/22 18:08:40;;;;;;;2.33;0.98;;;21.40;35.50;21.70;94476.00;;;;10440683;28;47493;-60
2021/10/22 18:13:41;;;;;;;4.75;1.00;;;21.40;35.60;21.80;94485.00;;;;10455602;28;45221;-61
2021/10/22 18:18:43;;;;;;;4.13;1.10;;;21.40;35.70;21.80;94482.00;;;;10450951;28;46589;-60
2021/10/22 18:23:44;;;;;;;2.28;0.90;;;21.40;35.80;21.80;94489.00;;;;10451147;28;45199;-60
2021/10/22 18:28:50;;;;;;;1.90;1.10;;;21.50;36.00;21.80;94473.00;;;;10450922;28;45658;-61
2021/10/22 18:33:51;;;;;;;2.63;0.90;;;21.40;36.00;21.90;94486.00;;;;10433331;28;47927;-60
2021/10/22 18:38:51;;;;;;;2.35;1.00;;;21.50;36.10;21.90;94495.00;;;;10450972;28;47234;-60
2021/10/22 18:43:52;;;;;;;2.83;1.10;;;21.50;36.20;21.90;94506.00;;;;10449297;28;47207;-60
2021/10/22 18:49:03;;;;;;;1.98;0.90;;;21.60;36.30;21.90;94513.00;;;;10449944;28;46776;-60
2021/10/22 18:54:08;;;;;;;2.85;0.95;;;21.50;36.30;21.90;94514.00;;;;10433660;28;46514;-60
2021/10/22 18:59:08;;;;;;;2.80;0.80;;;21.60;37.10;21.90;94518.00;;;;10449112;28;45564;-60
2021/10/22 19:04:10;;;;;;;2.63;0.80;;;21.60;36.50;22.00;94516.00;;;;10433518;28;46424;-59
2021/10/22 19:09:11;;;;;;;2.25;1.00;;;21.60;36.50;22.00;94522.00;;;;10449497;28;45640;-60
2021/10/22 19:14:12;;;;;;;2.55;0.90;;;21.60;36.60;22.00;94531.00;;;;10448665;28;45159;-60
2021/10/22 19:19:15;;;;;;;2.03;0.70;;;21.70;36.60;22.00;94528.00;;;;10433960;28;45106;-60
2021/10/22 19:24:16;;;;;;;2.70;0.80;;;21.70;36.70;22.00;94515.00;;;;10449088;28;47337;-60
2021/10/22 19:29:17;;;;;;;1.50;0.60;;;21.70;36.70;22.00;94534.00;;;;10432201;28;46998;-60
2021/10/22 19:34:18;;;;;;;1.83;0.80;;;21.70;36.70;22.00;94535.00;;;;10448500;28;45397;-60
2021/10/22 19:39:19;;;;;;;1.92;0.68;;;21.70;36.70;22.10;94529.00;;;;10448234;28;47238;-60
2021/10/22 19:44:19;;;;;;;2.28;0.80;;;21.70;36.80;22.10;94521.00;;;;10448619;28;45292;-59
2021/10/22 19:49:21;;;;;;;1.30;0.70;;;21.80;36.80;22.10;94522.00;;;;10467730;28;45313;-59
2021/10/22 19:54:22;;;;;;;1.50;0.70;;;21.70;36.80;22.10;94538.00;;;;10489624;28;45247;-60
2021/10/22 19:59:23;;;;;;;1.92;0.93;;;21.80;36.90;22.10;94546.00;;;;10474141;28;46659;-60
2021/10/22 20:04:25;;;;;;;0.93;0.60;;;21.80;36.90;22.10;94552.00;;;;10472255;28;47784;-59
2021/10/22 20:09:27;;;;;;;2.25;0.70;;;21.80;36.80;22.10;94555.00;;;;10488353;28;45448;-60
2021/10/22 20:14:28;;;;;;;2.17;0.70;;;21.80;36.80;22.10;94567.00;;;;10489450;28;45478;-59
2021/10/22 20:19:29;;;;;;;2.58;0.90;;;21.80;36.80;22.10;94580.00;;;;10473282;28;45275;-59
2021/10/22 20:24:30;;;;;;;2.15;0.70;;;21.80;36.90;22.10;94577.00;;;;10473326;28;45460;-60
2021/10/22 20:29:31;;;;;;;1.98;0.88;;;21.80;36.90;22.10;94593.00;;;;10491377;28;45323;-59
2021/10/22 20:34:33;;;;;;;1.25;0.60;;;21.70;36.80;22.00;94586.00;;;;10477534;28;47313;-59
2021/10/22 20:39:35;;;;;;;2.13;0.73;;;21.80;36.90;22.00;94591.00;;;;10495558;28;48300;-59
2021/10/22 20:44:35;;;;;;;1.90;0.80;;;21.70;36.80;22.00;94603.00;;;;10495735;28;45515;-60
2021/10/22 21:00:05;;;;;;;1.65;0.73;;;21.60;36.90;21.90;94615.00;;;;10451453;28;45139;-60
2021/10/22 21:05:07;;;;;;;1.17;0.68;;;21.50;37.00;21.80;94623.00;;;;10436155;28;45996;-60
2021/10/22 21:10:09;;;;;;;0.70;0.50;;;21.50;37.00;21.80;94606.00;;;;10436191;28;45373;-60
2021/10/22 21:15:10;;;;;;;1.38;0.70;;;21.50;37.00;21.80;94607.00;;;;10453472;28;45254;-60
2021/10/22 21:20:10;;;;;;;0.85;0.60;;;21.50;37.10;21.80;94625.00;;;;10452684;28;45376;-61
2021/10/22 21:25:11;;;;;;;1.63;0.70;;;21.50;37.10;21.80;94632.00;;;;10437310;28;45284;-60
2021/10/22 21:30:12;;;;;;;4.70;0.60;;;21.50;37.10;21.80;94638.00;;;;10435604;28;47498;-60
2021/10/22 21:35:13;;;;;;;1.58;0.52;;;21.40;37.10;21.70;94639.00;;;;10451891;28;47060;-60
2021/10/22 21:40:13;;;;;;;1.25;0.40;;;21.40;37.20;21.70;94617.00;;;;10436277;28;45575;-60
2021/10/22 21:45:15;;;;;;;0.70;0.50;;;21.40;37.20;21.70;94619.00;;;;10436324;28;45315;-60
2021/10/22 21:50:16;;;;;;;1.77;0.60;;;21.40;37.20;21.70;94621.00;;;;10451824;28;46399;-60
2021/10/22 21:55:17;;;;;;;1.08;0.40;;;21.40;37.20;21.70;94634.00;;;;10451952;28;45370;-60
2021/10/22 22:00:22;;;;;;;1.08;0.57;;;21.40;37.20;21.70;94635.00;;;;10451129;28;45414;-60
2021/10/22 22:05:23;;;;;;;1.17;0.50;;;21.30;37.20;21.60;94638.00;;;;10436020;28;45416;-60
2021/10/22 22:10:23;;;;;;;1.70;0.50;;;21.30;37.20;21.60;94633.00;;;;10451616;28;45383;-60
2021/10/22 22:15:24;;;;;;;1.17;0.63;;;21.30;37.20;21.60;94645.00;;;;10435638;28;45461;-60
2021/10/22 22:20:25;;;;;;;0.85;0.60;;;21.30;37.20;21.60;94636.00;;;;10451276;28;46055;-60
2021/10/22 22:25:26;;;;;;;1.05;0.45;;;21.30;37.20;21.60;94640.00;;;;10435395;28;45403;-60
2021/10/22 22:30:28;;;;;;;0.50;0.40;;;21.30;37.20;21.60;94639.00;;;;10450594;28;46854;-60
2021/10/22 22:35:28;;;;;;;1.35;0.60;;;21.30;37.20;21.60;94639.00;;;;10435222;28;45544;-60
2021/10/22 22:40:29;;;;;;;1.58;0.60;;;21.30;37.20;21.60;94633.00;;;;10450219;28;47032;-60
2021/10/22 22:45:30;;;;;;;0.80;0.40;;;21.30;37.30;21.60;94641.00;;;;10449721;28;45390;-60
2021/10/22 22:50:31;;;;;;;0.80;0.47;;;21.30;37.20;21.60;94645.00;;;;10478286;28;46758;-60
2021/10/22 22:55:31;;;;;;;1.20;0.50;;;21.30;37.20;21.50;94637.00;;;;10445243;28;45226;-60